sensor_id;sensor_type;location;lat;lon;timestamp;pressure;altitude;pressure_sealevel;temperature
59521;BMP280;54898;40.918;14.476;2022-10-16T13:14:58;100072.41;;;36.39
59521;BMP280;54898;40.918;14.476;2022-10-16T13:17:35;100143.75;;;36.46
59521;BMP280;54898;40.918;14.476;2022-10-16T13:20:12;99967.56;;;36.03
59521;BMP280;54898;40.918;14.476;2022-10-16T13:22:48;99901.94;;;35.81
59521;BMP280;54898;40.918;14.476;2022-10-16T13:25:23;99983.31;;;35.83
59521;BMP280;54898;40.918;14.476;2022-10-16T13:27:55;99837.31;;;35.87
59521;BMP280;54898;40.918;14.476;2022-10-16T13:30:26;100239.44;;;35.90
59521;BMP280;54898;40.918;14.476;2022-10-16T13:33:00;99188.38;;;35.76
59521;BMP280;54898;40.918;14.476;2022-10-16T13:35:29;100323.56;;;35.62
59521;BMP280;54898;40.918;14.476;2022-10-16T13:38:04;100003.13;;;35.78
59521;BMP280;54898;40.918;14.476;2022-10-16T13:40:31;99803.28;;;35.58
59521;BMP280;54898;40.918;14.476;2022-10-16T13:43:01;97544.38;;;35.09
59521;BMP280;54898;40.918;14.476;2022-10-16T13:45:30;100161.56;;;35.43
59521;BMP280;54898;40.918;14.476;2022-10-16T13:48:04;99839.25;;;35.22
59521;BMP280;54898;40.918;14.476;2022-10-16T13:50:31;99975.00;;;35.38
59521;BMP280;54898;40.918;14.476;2022-10-16T13:53:05;99383.81;;;34.87
59521;BMP280;54898;40.918;14.476;2022-10-16T13:55:32;99944.94;;;34.94
59521;BMP280;54898;40.918;14.476;2022-10-16T13:58:08;99807.41;;;35.10
59521;BMP280;54898;40.918;14.476;2022-10-16T14:00:36;100272.38;;;35.11
59521;BMP280;54898;40.918;14.476;2022-10-16T14:03:05;98935.38;;;34.97
59521;BMP280;54898;40.918;14.476;2022-10-16T14:05:32;99820.09;;;34.81
59521;BMP280;54898;40.918;14.476;2022-10-16T14:08:00;99782.25;;;34.73
59521;BMP280;54898;40.918;14.476;2022-10-16T14:10:29;100127.22;;;34.85
59521;BMP280;54898;40.918;14.476;2022-10-16T14:12:58;100125.53;;;34.82
59521;BMP280;54898;40.918;14.476;2022-10-16T14:15:25;98211.47;;;34.15
59521;BMP280;54898;40.918;14.476;2022-10-16T14:17:53;99688.25;;;34.30
59521;BMP280;54898;40.918;14.476;2022-10-16T14:20:24;99666.25;;;34.19
59521;BMP280;54898;40.918;14.476;2022-10-16T14:23:04;99628.66;;;34.20
59521;BMP280;54898;40.918;14.476;2022-10-16T14:25:44;71636.22;;;-143.06
59521;BMP280;54898;40.918;14.476;2022-10-16T14:28:16;71636.22;;;-143.06
59521;BMP280;54898;40.918;14.476;2022-10-16T14:30:54;71636.22;;;-143.06
59521;BMP280;54898;40.918;14.476;2022-10-16T14:33:24;71636.22;;;-143.06
59521;BMP280;54898;40.918;14.476;2022-10-16T14:36:03;71636.22;;;-143.06
59521;BMP280;54898;40.918;14.476;2022-10-16T14:38:31;71636.22;;;-143.06
59521;BMP280;54898;40.918;14.476;2022-10-16T14:40:59;71636.22;;;-143.06
59521;BMP280;54898;40.918;14.476;2022-10-16T14:43:32;71636.22;;;-143.06
59521;BMP280;54898;40.918;14.476;2022-10-16T14:46:00;71636.22;;;-143.06
59521;BMP280;54898;40.918;14.476;2022-10-16T14:48:29;71636.22;;;-143.06
59521;BMP280;54898;40.918;14.476;2022-10-16T14:50:56;71636.22;;;-143.06
59521;BMP280;54898;40.918;14.476;2022-10-16T14:53:23;71636.22;;;-143.06
59521;BMP280;54898;40.918;14.476;2022-10-16T14:55:50;71636.22;;;-143.06
59521;BMP280;54898;40.918;14.476;2022-10-16T14:58:19;71636.22;;;-143.06
59521;BMP280;54898;40.918;14.476;2022-10-16T15:00:46;71636.22;;;-143.06
59521;BMP280;54898;40.918;14.476;2022-10-16T15:03:13;71636.22;;;-143.06
59521;BMP280;54898;40.918;14.476;2022-10-16T15:05:41;71636.22;;;-143.06
59521;BMP280;54898;40.918;14.476;2022-10-16T15:08:08;71636.22;;;-143.06
59521;BMP280;54898;40.918;14.476;2022-10-16T15:10:39;71636.22;;;-143.06
59521;BMP280;54898;40.918;14.476;2022-10-16T15:13:08;71636.22;;;-143.06
59521;BMP280;54898;40.918;14.476;2022-10-16T15:15:36;71636.22;;;-143.06
59521;BMP280;54898;40.918;14.476;2022-10-16T15:18:04;71636.22;;;-143.06
59521;BMP280;54898;40.918;14.476;2022-10-16T15:20:32;71636.22;;;-143.06
59521;BMP280;54898;40.918;14.476;2022-10-16T15:23:02;71636.22;;;-143.06
59521;BMP280;54898;40.918;14.476;2022-10-16T15:25:32;71636.22;;;-143.06
59521;BMP280;54898;40.918;14.476;2022-10-16T15:28:00;71636.22;;;-143.06
59521;BMP280;54898;40.918;14.476;2022-10-16T15:30:28;71636.22;;;-143.06
59521;BMP280;54898;40.918;14.476;2022-10-16T15:32:55;71636.22;;;-143.06
59521;BMP280;54898;40.918;14.476;2022-10-16T15:35:22;71636.22;;;-143.06
59521;BMP280;54898;40.918;14.476;2022-10-16T15:37:49;71636.22;;;-143.06
59521;BMP280;54898;40.918;14.476;2022-10-16T15:40:18;71636.22;;;-143.06
59521;BMP280;54898;40.918;14.476;2022-10-16T15:42:45;71636.22;;;-143.06
